createdAt,value
2022-10-21T00:04:28.538Z,93896.80
2022-10-21T00:09:35.409Z,93891.33
2022-10-21T00:14:42.261Z,93883.02
2022-10-21T00:19:49.322Z,93889.41
2022-10-21T00:24:56.331Z,93877.75
2022-10-21T00:30:03.527Z,93882.25
2022-10-21T00:35:10.428Z,93877.81
2022-10-21T00:40:17.226Z,93882.05
2022-10-21T00:45:31.907Z,93874.63
2022-10-21T00:50:46.262Z,93866.95
2022-10-21T00:55:57.387Z,93856.62
2022-10-21T01:01:06.977Z,93849.49
2022-10-21T01:06:15.672Z,93845.00
2022-10-21T01:11:25.130Z,93852.64
2022-10-21T01:16:41.166Z,93838.62
2022-10-21T01:22:07.096Z,93838.13
2022-10-21T01:27:26.856Z,93827.80
2022-10-21T01:33:06.428Z,93816.66
2022-10-21T01:38:47.292Z,93814.01
2022-10-21T01:44:20.533Z,93808.17
2022-10-21T01:49:37.554Z,93812.42
2022-10-21T01:54:49.106Z,93820.91
2022-10-21T01:59:58.311Z,93792.00
2022-10-21T02:05:09.510Z,93797.03
2022-10-21T02:10:16.712Z,93798.36
2022-10-21T02:15:25.409Z,93792.20
2022-10-21T02:20:36.601Z,93789.02
2022-10-21T02:25:46.382Z,93793.23
2022-10-21T02:31:15.058Z,93782.05
2022-10-21T02:36:59.275Z,93781.87
2022-10-21T02:42:09.070Z,93778.12
2022-10-21T02:47:18.007Z,93769.95
2022-10-21T02:52:24.821Z,93769.38
2022-10-21T02:57:31.579Z,93771.00
2022-10-21T03:02:38.767Z,93768.38
2022-10-21T03:07:45.982Z,93765.97
2022-10-21T03:12:53.133Z,93760.70
2022-10-21T03:17:59.877Z,93755.95
2022-10-21T03:23:06.977Z,93762.81
2022-10-21T03:28:14.686Z,93771.85
2022-10-21T03:33:21.473Z,93763.90
2022-10-21T03:38:28.497Z,93774.74
2022-10-21T03:43:35.328Z,93762.00
2022-10-21T03:48:42.178Z,93739.17
2022-10-21T03:53:49.576Z,93744.73
2022-10-21T03:58:58.761Z,93761.13
2022-10-21T04:04:05.775Z,93759.22
2022-10-21T04:09:12.777Z,93768.05
2022-10-21T04:14:20.506Z,93761.70
2022-10-21T04:19:27.692Z,93753.58
2022-10-21T04:24:34.733Z,93743.75
2022-10-21T04:29:41.650Z,93736.18
2022-10-21T04:34:48.963Z,93728.60
2022-10-21T04:39:57.778Z,93732.08
2022-10-21T04:45:04.969Z,93739.47
2022-10-21T04:50:12.651Z,93737.31
2022-10-21T04:55:20.277Z,93725.16
2022-10-21T05:00:27.163Z,93719.04
2022-10-21T05:05:34.150Z,93702.31
2022-10-21T05:10:41.030Z,93707.05
2022-10-21T05:15:47.991Z,93700.73
2022-10-21T05:20:57.233Z,93695.88
2022-10-21T05:26:04.220Z,93683.73
2022-10-21T05:31:11.025Z,93704.34
2022-10-21T05:36:20.539Z,93687.61
2022-10-21T05:41:26.527Z,93689.20
2022-10-21T05:46:33.402Z,93685.23
2022-10-21T05:51:40.350Z,93682.15
2022-10-21T05:56:48.741Z,93675.17
2022-10-21T06:01:55.667Z,93675.17
2022-10-21T06:07:02.745Z,93677.81
2022-10-21T06:12:10.268Z,93686.61
2022-10-21T06:17:17.080Z,93688.98
2022-10-21T06:22:24.594Z,93679.24
2022-10-21T06:27:31.314Z,93693.58
2022-10-21T06:32:38.141Z,93698.08
2022-10-21T06:37:45.290Z,93698.08
2022-10-21T06:42:52.875Z,93699.44
2022-10-21T06:47:59.716Z,93701.84
2022-10-21T06:53:06.556Z,93707.16
2022-10-21T06:58:13.392Z,93701.89
2022-10-21T07:03:20.312Z,93713.70
2022-10-21T07:08:46.294Z,93722.92
2022-10-21T07:13:40.497Z,93715.88
2022-10-21T07:18:47.618Z,93719.34
2022-10-21T07:23:57.929Z,93722.23
2022-10-21T07:29:04.519Z,93736.81
2022-10-21T07:34:13.486Z,93745.56
2022-10-21T07:39:23.898Z,93742.91
2022-10-21T07:44:30.928Z,93723.32
2022-10-21T07:49:38.514Z,93720.95
2022-10-21T07:54:45.581Z,93720.39
2022-10-21T07:59:52.814Z,93721.47
2022-10-21T08:05:00.045Z,93726.25
2022-10-21T08:10:08.616Z,93715.59
2022-10-21T08:15:15.781Z,93702.08
2022-10-21T08:20:23.416Z,93714.33
2022-10-21T08:25:30.597Z,93711.14
2022-10-21T08:30:37.448Z,93690.20
2022-10-21T08:35:45.287Z,93687.26
2022-10-21T08:40:55.006Z,93686.22
2022-10-21T08:46:17.004Z,93674.80
2022-10-21T08:51:40.344Z,93674.00
2022-10-21T08:56:50.508Z,93666.07
2022-10-21T09:02:04.679Z,93655.95
2022-10-21T09:07:36.947Z,93650.74
2022-10-21T09:13:00.534Z,93635.20
2022-10-21T09:18:20.293Z,93630.92
2022-10-21T09:29:41.424Z,93633.26
2022-10-21T09:35:01.597Z,93621.60
2022-10-21T09:40:18.192Z,93626.90
2022-10-21T09:45:29.413Z,93625.66
2022-10-21T09:50:37.962Z,93622.44
2022-10-21T09:55:55.577Z,93617.73
2022-10-21T10:01:02.320Z,93619.91
2022-10-21T10:06:09.606Z,93618.34
2022-10-21T10:11:22.321Z,93610.74
2022-10-21T10:16:34.775Z,93599.81
2022-10-21T10:21:41.585Z,93590.75
2022-10-21T10:26:49.654Z,93594.34
2022-10-21T10:32:03.131Z,93586.06
2022-10-21T10:37:28.827Z,93582.14
2022-10-21T10:42:43.106Z,93577.30
2022-10-21T10:47:59.566Z,93558.27
2022-10-21T10:53:35.488Z,93553.36
2022-10-21T10:59:04.650Z,93546.88
2022-10-21T11:04:21.657Z,93544.98
2022-10-21T11:09:29.545Z,93534.59
2022-10-21T11:14:37.139Z,93535.29
2022-10-21T11:20:01.171Z,93524.48
2022-10-21T11:25:12.368Z,93530.47
2022-10-21T11:30:26.101Z,93517.32
2022-10-21T11:35:45.718Z,93523.29
2022-10-21T11:41:03.754Z,93516.04
2022-10-21T11:46:21.536Z,93511.60
2022-10-21T11:51:44.437Z,93508.28
2022-10-21T11:57:10.328Z,93501.72
2022-10-21T12:02:30.470Z,93504.95
2022-10-21T12:08:18.535Z,93493.48
2022-10-21T12:13:37.331Z,93493.58
2022-10-21T12:19:04.438Z,93497.56
2022-10-21T12:24:38.786Z,93492.22
2022-10-21T12:30:23.383Z,93486.85
2022-10-21T12:35:53.760Z,93490.60
2022-10-21T12:41:30.425Z,93483.48
2022-10-21T12:46:57.352Z,93464.62
2022-10-21T12:52:24.711Z,93473.45
2022-10-21T12:57:38.917Z,93439.33
2022-10-21T13:03:09.649Z,93432.97
2022-10-21T13:08:27.893Z,93433.42
2022-10-21T13:13:48.103Z,93440.05
2022-10-21T13:19:05.078Z,93427.05
2022-10-21T13:24:24.943Z,93414.39
2022-10-21T13:29:47.880Z,93415.70
2022-10-21T13:35:07.798Z,93429.12
2022-10-21T13:40:21.304Z,93428.39
2022-10-21T13:50:51.697Z,93423.16
2022-10-21T13:56:02.627Z,93427.37
2022-10-21T14:01:13.139Z,93441.92
2022-10-21T14:06:34.370Z,93446.61
2022-10-21T14:11:49.317Z,93449.27
2022-10-21T14:17:02.301Z,93446.50
2022-10-21T14:22:10.957Z,93446.73
2022-10-21T14:27:24.989Z,93444.92
2022-10-21T14:32:32.578Z,93429.91
2022-10-21T14:37:57.986Z,93430.13
2022-10-21T14:43:20.117Z,93436.67
2022-10-21T14:48:34.302Z,93431.77
2022-10-21T14:54:05.215Z,93451.67
2022-10-21T14:59:37.696Z,93432.56
2022-10-21T15:04:57.306Z,93429.66
2022-10-21T15:10:16.858Z,93424.25
2022-10-21T15:15:52.581Z,93433.81
2022-10-21T15:21:06.486Z,93429.12
2022-10-21T15:26:20.814Z,93430.30
2022-10-21T15:31:30.102Z,93421.53
2022-10-21T15:36:39.069Z,93419.50
2022-10-21T15:41:46.633Z,93427.20
2022-10-21T15:46:54.999Z,93434.27
2022-10-21T15:52:01.957Z,93439.92
2022-10-21T15:57:21.372Z,93449.81
2022-10-21T16:02:28.763Z,93445.94
2022-10-21T16:07:37.425Z,93445.94
2022-10-21T16:12:44.267Z,93438.33
2022-10-21T16:17:54.723Z,93439.47
2022-10-21T16:23:03.245Z,93445.23
2022-10-21T16:28:12.162Z,93462.49
2022-10-21T16:33:20.716Z,93467.47
2022-10-21T16:38:28.103Z,93461.67
2022-10-21T16:43:35.303Z,93464.98
2022-10-21T16:48:43.208Z,93478.28
2022-10-21T16:53:50.138Z,93483.31
2022-10-21T16:58:56.905Z,93468.61
2022-10-21T17:04:04.200Z,93478.16
2022-10-21T17:09:11.403Z,93492.81
2022-10-21T17:14:22.206Z,93485.16
2022-10-21T17:19:29.288Z,93486.64
2022-10-21T17:24:35.961Z,93488.28
2022-10-21T17:29:43.396Z,93476.97
2022-10-21T17:34:50.418Z,93482.00
2022-10-21T17:39:57.256Z,93472.53
2022-10-21T17:45:04.193Z,93473.89
2022-10-21T17:50:12.053Z,93477.94
2022-10-21T17:55:19.390Z,93477.48
2022-10-21T18:00:26.095Z,93477.25
2022-10-21T18:05:33.292Z,93473.36
2022-10-21T18:10:40.170Z,93473.41
2022-10-21T18:15:46.858Z,93482.95
2022-10-21T18:20:53.766Z,93497.77
2022-10-21T18:26:07.085Z,93498.33
2022-10-21T18:31:15.148Z,93506.80
2022-10-21T18:36:22.355Z,93518.44
2022-10-21T18:41:29.650Z,93514.14
2022-10-21T18:46:41.650Z,93513.53
2022-10-21T18:51:48.768Z,93511.84
2022-10-21T18:56:55.620Z,93510.38
2022-10-21T19:02:03.848Z,93502.88
2022-10-21T19:07:10.985Z,93502.62
2022-10-21T19:12:22.437Z,93504.35
2022-10-21T19:17:27.780Z,93511.52
2022-10-21T19:22:34.525Z,93516.30
2022-10-21T19:27:41.621Z,93513.17
2022-10-21T19:32:48.964Z,93511.13
2022-10-21T19:38:00.544Z,93533.15
2022-10-21T19:43:04.706Z,93544.34
2022-10-21T19:48:11.727Z,93546.38
2022-10-21T19:53:19.617Z,93555.44
2022-10-21T19:58:26.324Z,93548.15
2022-10-21T20:03:33.458Z,93549.52
2022-10-21T20:08:42.529Z,93564.02
2022-10-21T20:13:51.379Z,93561.16
2022-10-21T20:18:59.846Z,93565.26
2022-10-21T20:24:07.873Z,93569.99
2022-10-21T20:29:15.875Z,93568.80
2022-10-21T20:34:22.802Z,93564.74
2022-10-21T20:39:29.856Z,93570.95
2022-10-21T20:44:37.195Z,93581.31
2022-10-21T20:49:44.183Z,93575.06
2022-10-21T20:54:55.058Z,93567.55
2022-10-21T21:00:02.795Z,93574.95
2022-10-21T21:05:10.735Z,93564.88
2022-10-21T21:10:17.571Z,93572.70
2022-10-21T21:15:24.288Z,93570.50
2022-10-21T21:20:31.384Z,93563.11
2022-10-21T21:25:38.683Z,93558.75
2022-10-21T21:30:54.472Z,93559.39
2022-10-21T21:36:01.948Z,93566.02
2022-10-21T21:41:10.573Z,93560.23
2022-10-21T21:46:20.167Z,93559.28
2022-10-21T21:51:29.627Z,93557.27
2022-10-21T21:56:37.393Z,93544.39
2022-10-21T22:01:44.355Z,93540.02
2022-10-21T22:06:51.666Z,93549.30
2022-10-21T22:11:58.423Z,93549.98
2022-10-21T22:17:05.380Z,93544.91
2022-10-21T22:22:12.829Z,93536.52
2022-10-21T22:27:19.656Z,93533.34
2022-10-21T22:32:26.600Z,93531.42
2022-10-21T22:37:33.712Z,93538.30
2022-10-21T22:42:40.481Z,93522.70
2022-10-21T22:47:47.245Z,93523.63
2022-10-21T22:52:54.070Z,93533.86
2022-10-21T22:58:01.227Z,93532.64
2022-10-21T23:03:09.710Z,93529.50
2022-10-21T23:08:17.267Z,93530.70
2022-10-21T23:13:24.216Z,93528.02
2022-10-21T23:18:31.035Z,93527.69
2022-10-21T23:23:38.286Z,93529.84
2022-10-21T23:28:45.130Z,93518.09
2022-10-21T23:33:51.868Z,93517.08
2022-10-21T23:38:59.706Z,93520.00
2022-10-21T23:44:06.667Z,93506.69
2022-10-21T23:49:13.412Z,93520.05
2022-10-21T23:54:20.367Z,93509.44
2022-10-21T23:59:27.437Z,93503.88
